Latest Weather Observations for Coonawarra

IDS60801

Issued at 4:31 am CDT Thursday 29 January 2015 (issued every 30 minutes, with the page automatically refreshed every 10 minutes)

About weather observations | Map of weather stations | Latest weather observations for SA | Other Formats
Station Details ID: 026091 Name: COONAWARRA Lat: -37.29 Lon: 140.83 Height: 57.0 m
Data from the previous 72 hours. | See also: Recent months at Coonawarra
Date/Time
CDT
Temp
°C
App
Temp
°C
Dew
Point
Rel
Hum
%
Delta-T
°C
Wind Press
QNH
hPa
Press
MSL
hPa
Rain
since 9 am
mm
Dir
 
Spd
km/h
Gust
km/h
Spd
kts
Gust
kts
29/04:30am 12.3 8.6 9.5 83 1.4 SE 19 26 10 14 1019.4 1019.3 0.0
29/04:00am 12.3 8.9 9.3 82 1.5 SE 17 28 9 15 1019.4 1019.3 0.0
29/03:30am 12.3 9.0 8.2 76 2.0 SE 15 22 8 12 1019.3 1019.2 0.0
29/03:00am 12.5 8.8 8.0 74 2.2 SSE 17 20 9 11 1019.5 1019.4 0.0
29/02:30am 12.5 9.2 8.0 74 2.2 SSE 15 20 8 11 1019.5 1019.4 0.0
29/02:00am 12.8 9.9 8.1 73 2.3 SSE 13 19 7 10 1019.5 1019.4 0.0
29/01:30am 13.5 10.2 8.1 70 2.7 SSE 15 22 8 12 1019.7 1019.6 0.0
29/01:00am 13.8 10.5 8.2 69 2.8 SE 15 22 8 12 1019.9 1019.8 0.0
29/12:30am 14.4 10.3 8.0 65 3.2 SE 19 26 10 14 1019.9 1019.8 0.0
29/12:00am 14.7 11.0 8.1 64 3.3 SE 17 24 9 13 1019.8 1019.7 0.0
 
Date/Time
CDT
Temp
°C
App
Temp
°C
Dew
Point
Rel
Hum
%
Delta-T
°C
Wind Press
QNH
hPa
Press
MSL
hPa
Rain
since 9 am
mm
Dir
 
Spd
km/h
Gust
km/h
Spd
kts
Gust
kts
28/11:30pm 15.2 11.2 8.2 63 3.5 SE 19 24 10 13 1019.8 1019.7 0.0
28/11:00pm 15.6 12.0 8.3 62 3.7 SE 17 24 9 13 1019.7 1019.6 0.0
28/10:30pm 16.2 12.0 8.1 58 4.1 SSE 20 28 11 15 1019.7 1019.6 0.0
28/10:00pm 16.6 12.7 8.6 59 4.1 SSE 19 28 10 15 1019.5 1019.4 0.0
28/09:30pm 17.4 13.9 8.9 57 4.4 SSE 17 26 9 14 1019.2 1019.1 0.0
28/09:00pm 18.2 14.2 9.2 55 4.7 SSE 20 30 11 16 1018.7 1018.6 0.0
28/08:30pm 19.0 14.4 9.6 54 5.0 SSE 24 33 13 18 1018.2 1018.1 0.0
28/08:00pm 20.1 15.2 9.8 51 5.5 SSE 26 39 14 21 1017.7 1017.6 0.0
28/07:30pm 21.5 16.9 11.0 51 5.8 SSE 26 46 14 25 1017.4 1017.3 0.0
28/07:17pm 21.9 16.9 10.8 49 6.1 SSE 28 46 15 25 1017.1 1017.0 0.0
28/07:00pm 22.4 17.4 10.8 47 6.4 SSE 28 41 15 22 1016.9 1016.8 0.0
28/06:30pm 23.3 18.7 10.9 45 6.9 SSE 26 41 14 22 1016.6 1016.5 0.0
28/06:00pm 24.4 19.9 10.1 40 7.9 SSE 24 39 13 21 1016.6 1016.5 0.0
28/05:30pm 24.3 18.7 10.2 41 7.8 SSE 30 44 16 24 1016.4 1016.3 0.0
28/05:00pm 24.9 19.7 10.3 39 8.1 SSE 28 44 15 24 1016.4 1016.3 0.0
28/04:30pm 25.2 20.9 9.3 36 8.7 SE 22 32 12 17 1016.4 1016.3 0.0
28/04:00pm 25.2 20.3 8.5 34 9.0 SE 24 41 13 22 1016.4 1016.3 0.0
28/03:30pm 24.6 19.3 8.6 36 8.6 SSE 26 50 14 27 1016.8 1016.7 0.0
28/03:27pm 25.1 19.5 8.8 35 8.8 SSE 28 50 15 27 1016.6 1016.5 0.0
28/03:00pm 24.3 18.9 8.1 35 8.6 SE 26 37 14 20 1017.1 1017.0 0.0
28/02:30pm 24.1 19.4 9.1 38 8.1 SSE 24 37 13 20 1017.3 1017.2 0.0
28/02:00pm 23.6 18.6 9.4 40 7.7 SSE 26 41 14 22 1017.7 1017.6 0.0
28/01:30pm 22.7 17.4 8.6 40 7.5 SE 26 37 14 20 1018.1 1018.0 0.0
28/01:00pm 22.1 16.6 9.0 43 7.0 SE 28 39 15 21 1018.3 1018.2 0.0
28/12:30pm 21.9 16.1 7.9 40 7.3 SE 28 43 15 23 1018.4 1018.3 0.0
28/12:00pm 21.0 15.2 7.9 43 6.8 SE 28 44 15 24 1018.7 1018.6 0.0
28/11:30am 20.4 14.7 8.3 45 6.3 SE 28 39 15 21 1019.1 1019.0 0.0
28/11:00am 19.8 15.2 8.0 46 6.1 SE 22 37 12 20 1019.4 1019.3 0.0
28/10:30am 19.1 13.7 8.0 48 5.7 SE 26 35 14 19 1019.5 1019.4 0.0
28/10:00am 18.9 13.6 8.5 51 5.4 SE 26 37 14 20 1019.6 1019.5 0.0
28/09:32am 17.9 11.6 7.4 50 5.3 SE 30 50 16 27 1019.4 1019.3 0.0
28/09:30am 17.8 12.3 7.5 51 5.2 SE 26 41 14 22 1019.5 1019.4 0.0
28/09:00am 17.0 11.5 7.4 53 4.8 SE 26 46 14 25 1019.4 1019.3 0.0
28/08:30am 16.4 10.5 7.4 55 4.5 SE 28 46 15 25 1019.1 1019.0 0.0
28/08:00am 15.7 11.3 7.5 58 4.1 SSE 20 32 11 17 1018.9 1018.8 0.0
28/07:30am 14.8 10.1 7.8 63 3.5 SE 22 32 12 17 1018.6 1018.5 0.0
28/07:00am 13.9 10.1 7.6 66 3.1 SSE 17 28 9 15 1018.2 1018.1 0.0
28/06:30am 13.0 8.7 7.2 68 2.8 SSE 19 28 10 15 1017.9 1017.8 0.0
28/06:00am 13.0 8.7 7.2 68 2.8 SSE 19 28 10 15 1017.6 1017.5 0.0
28/05:30am 12.5 8.6 6.9 68 2.7 SSE 17 26 9 14 1017.6 1017.5 0.0
28/05:00am 12.8 8.7 6.3 64 3.1 SSE 17 24 9 13 1017.7 1017.6 0.0
28/04:30am 12.3 8.3 6.6 68 2.7 SSE 17 24 9 13 1017.6 1017.5 0.0
28/04:00am 12.5 8.4 6.4 66 2.9 SSE 17 24 9 13 1017.7 1017.6 0.0
28/03:30am 12.3 8.4 6.9 69 2.6 SSE 17 28 9 15 1017.7 1017.6 0.0
28/03:00am 12.7 8.2 7.1 69 2.7 SSE 20 30 11 16 1018.1 1018.0 0.0
28/02:30am 12.2 8.8 7.5 73 2.3 SSE 15 20 8 11 1018.3 1018.2 0.0
28/02:00am 11.7 8.1 8.2 79 1.7 S 17 22 9 12 1018.6 1018.5 0.0
28/01:30am 12.0 8.8 8.4 78 1.8 S 15 20 8 11 1019.0 1018.9 0.0
28/01:00am 12.2 9.4 8.6 78 1.8 S 13 17 7 9 1019.1 1019.0 0.0
28/12:30am 11.7 9.6 8.2 79 1.7 S 9 13 5 7 1019.2 1019.1 0.0
28/12:00am 11.6 9.4 7.7 77 1.9 S 9 13 5 7 1019.3 1019.2 0.0
 
Date/Time
CDT
Temp
°C
App
Temp
°C
Dew
Point
Rel
Hum
%
Delta-T
°C
Wind Press
QNH
hPa
Press
MSL
hPa
Rain
since 9 am
mm
Dir
 
Spd
km/h
Gust
km/h
Spd
kts
Gust
kts
27/11:30pm 12.5 9.9 7.6 72 2.4 SSE 11 15 6 8 1019.1 1019.0 0.0
27/11:00pm 13.7 10.7 7.6 66 3.0 SSE 13 28 7 15 1019.3 1019.2 0.0
27/10:30pm 14.4 10.5 7.3 62 3.5 SSE 17 28 9 15 1019.4 1019.3 0.0
27/10:00pm 14.6 10.5 7.7 63 3.4 SSE 19 26 10 14 1019.4 1019.3 0.0
27/09:30pm 14.2 10.0 7.3 63 3.4 SSE 19 28 10 15 1019.2 1019.1 0.0
27/09:00pm 14.9 10.3 6.7 58 4.0 SE 20 32 11 17 1018.9 1018.8 0.0
27/08:30pm 15.7 10.7 6.5 54 4.5 SE 22 32 12 17 1018.6 1018.5 0.0
27/08:00pm 15.9 11.4 7.0 55 4.4 SE 20 28 11 15 1018.4 1018.3 0.0
27/07:30pm 16.3 12.0 7.7 56 4.3 SSE 20 32 11 17 1018.2 1018.1 0.0
27/07:00pm 16.7 11.9 7.3 54 4.7 SSE 22 32 12 17 1017.9 1017.8 0.0
27/06:30pm 17.7 12.2 7.6 51 5.1 SE 26 39 14 21 1017.5 1017.4 0.0
27/06:00pm 17.7 12.5 7.4 51 5.2 SSE 24 33 13 18 1017.3 1017.2 0.0
27/05:30pm 17.6 11.3 7.5 51 5.1 SSE 30 44 16 24 1017.4 1017.3 0.0
27/05:00pm 18.6 12.4 6.0 43 6.2 SSE 28 39 15 21 1017.2 1017.1 0.0
27/04:49pm 18.3 12.2 6.4 45 5.9 SSE 28 46 15 25 1017.2 1017.1 0.0
27/04:30pm 19.1 13.7 6.5 43 6.3 SSE 24 35 13 19 1017.1 1017.0 0.0
27/04:00pm 19.1 13.2 5.9 42 6.5 SSE 26 39 14 21 1017.0 1016.9 0.0
27/03:30pm 19.0 13.7 6.6 44 6.2 SSE 24 39 13 21 1017.2 1017.1 0.0
27/03:00pm 18.7 13.0 6.7 45 6.0 SSE 26 39 14 21 1017.5 1017.4 0.0
27/02:30pm 18.9 13.3 5.6 41 6.5 S 24 35 13 19 1017.8 1017.7 0.0
27/02:00pm 19.0 13.6 6.3 43 6.3 SSE 24 33 13 18 1017.7 1017.6 0.0
27/01:30pm 18.5 13.9 6.4 45 6.0 SSE 20 30 11 16 1018.0 1017.9 0.0
27/01:00pm 18.2 13.1 6.0 44 6.0 SSE 22 32 12 17 1018.2 1018.1 0.0
27/12:30pm 18.7 14.3 6.7 45 6.0 SE 19 28 10 15 1018.4 1018.3 0.0
27/12:00pm 18.3 13.8 6.1 44 6.0 SSE 19 32 10 17 1018.8 1018.7 0.0
27/11:30am 16.7 12.2 6.0 49 5.2 SSE 19 33 10 18 1019.1 1019.0 0.0
27/11:00am 16.4 11.8 6.4 51 4.9 SSE 20 32 11 17 1019.1 1019.0 0.0
27/10:30am 16.3 11.9 6.7 53 4.7 S 19 28 10 15 1019.3 1019.2 0.0
27/10:00am 15.9 11.0 7.0 55 4.4 S 22 32 12 17 1019.3 1019.2 0.0
27/09:30am 16.1 11.4 7.7 57 4.2 S 22 32 12 17 1019.5 1019.4 0.0
27/09:00am 15.2 11.6 8.2 63 3.5 S 17 22 9 12 1019.5 1019.4 0.0
27/08:30am 13.8 11.0 8.6 71 2.6 S 13 17 7 9 1019.4 1019.3 0.0
27/08:00am 12.2 10.0 7.7 74 2.2 S 9 11 5 6 1019.1 1019.0 0.0
27/07:30am 9.2 7.1 6.6 84 1.2 S 7 11 4 6 1018.7 1018.6 0.0
27/07:00am 7.0 5.7 5.9 93 0.5 SE 2 9 1 5 1018.5 1018.4 0.0
27/06:30am 3.7 2.1 2.7 93 0.4 CALM 0 0 0 0 1018.4 1018.3 0.0
27/06:00am 3.5 1.9 2.5 93 0.4 CALM 0 0 0 0 1018.3 1018.2 0.0
27/05:30am 4.0 2.6 3.3 95 0.3 CALM 0 0 0 0 1017.9 1017.8 0.0
27/05:00am 4.1 1.5 3.4 95 0.3 SSE 6 6 3 3 1017.8 1017.7 0.0
27/04:30am 4.7 2.2 3.5 92 0.5 SSE 6 7 3 4 1017.8 1017.7 0.0
27/04:00am 6.8 4.4 5.2 89 0.7 S 7 9 4 5 1017.9 1017.8 0.0
27/03:30am 6.3 3.4 4.7 89 0.7 S 9 11 5 6 1018.0 1017.9 0.0
27/03:00am 6.2 3.4 5.1 93 0.5 S 9 11 5 6 1018.3 1018.2 0.0
27/02:30am 6.2 3.3 4.8 91 0.6 S 9 9 5 5 1018.3 1018.2 0.0
27/02:00am 6.1 3.6 4.7 91 0.6 S 7 7 4 4 1018.4 1018.3 0.0
27/01:30am 6.3 3.9 5.2 93 0.5 SSW 7 7 4 4 1018.7 1018.6 0.0
27/01:00am 7.1 4.9 5.5 89 0.7 SSW 6 9 3 5 1018.8 1018.7 0.0
27/12:30am 7.6 5.3 5.8 88 0.8 S 7 7 4 4 1018.8 1018.7 0.0
27/12:00am 8.7 6.6 6.5 86 1.0 S 7 9 4 5 1018.8 1018.7 0.0
 
Date/Time
CDT
Temp
°C
App
Temp
°C
Dew
Point
Rel
Hum
%
Delta-T
°C
Wind Press
QNH
hPa
Press
MSL
hPa
Rain
since 9 am
mm
Dir
 
Spd
km/h
Gust
km/h
Spd
kts
Gust
kts
26/11:30pm 10.6 8.0 6.3 75 2.0 S 9 11 5 6 1018.8 1018.7 0.0
26/11:00pm 10.7 7.8 6.4 75 2.0 S 11 13 6 7 1018.9 1018.8 0.0
26/10:30pm 12.3 9.0 6.4 67 2.8 SSE 13 17 7 9 1019.0 1018.9 0.0
26/10:00pm 12.8 9.9 6.3 64 3.1 SSE 11 15 6 8 1019.2 1019.1 0.0
26/09:30pm 13.4 9.7 6.5 63 3.3 S 15 19 8 10 1019.1 1019.0 0.0
26/09:00pm 14.4 10.4 6.5 59 3.8 SSE 17 24 9 13 1018.7 1018.6 0.0
26/08:30pm 15.1 11.4 6.2 55 4.3 SSE 15 24 8 13 1018.4 1018.3 0.0
26/08:00pm 15.9 12.2 6.2 52 4.7 SSE 15 24 8 13 1018.1 1018.0 0.0
26/07:30pm 16.5 12.8 6.5 51 4.9 SSE 15 24 8 13 1018.0 1017.9 0.0
26/07:00pm 16.8 12.1 6.1 49 5.2 SSE 20 30 11 16 1017.5 1017.4 0.0
26/06:30pm 17.4 12.8 5.4 45 5.8 S 19 26 10 14 1017.3 1017.2 0.0
26/06:00pm 17.4 12.6 5.4 45 5.8 S 20 28 11 15 1016.9 1016.8 0.0
26/05:30pm 17.5 12.6 5.3 44 5.9 SSE 20 30 11 16 1017.1 1017.0 0.0
26/05:00pm 17.9 13.1 5.8 45 5.9 S 20 30 11 16 1017.1 1017.0 0.0
26/04:30pm 17.9 12.8 5.8 45 5.9 SSW 22 33 12 18 1017.1 1017.0 0.0
26/04:00pm 18.3 13.1 5.3 42 6.3 S 22 30 12 16 1017.3 1017.2 0.0
26/03:30pm 18.2 12.6 5.4 43 6.2 S 24 32 13 17 1017.4 1017.3 0.0
26/03:00pm 18.0 13.0 4.6 41 6.4 S 20 28 11 15 1017.5 1017.4 0.0
26/02:30pm 18.1 13.7 5.0 42 6.3 S 17 24 9 13 1017.4 1017.3 0.0
26/02:00pm 17.9 13.5 5.0 42 6.2 S 17 22 9 12 1017.6 1017.5 0.0
26/01:30pm 17.8 13.0 4.9 42 6.2 S 19 30 10 16 1017.6 1017.5 0.0
26/01:00pm 17.0 12.3 5.1 45 5.7 SW 19 26 10 14 1017.9 1017.8 0.0
26/12:30pm 17.6 13.4 5.7 45 5.8 SW 17 28 9 15 1018.1 1018.0 0.0
26/12:00pm 17.6 13.0 3.7 39 6.5 SSE 17 24 9 13 1018.3 1018.2 0.0
26/11:30am 18.4 14.3 4.6 40 6.6 SSE 15 26 8 14 1018.3 1018.2 0.0
26/11:00am 16.5 13.2 4.4 44 5.7 S 11 17 6 9 1018.7 1018.6 0.0
26/10:30am 16.1 12.0 4.6 46 5.4 SSW 15 20 8 11 1018.8 1018.7 0.0
26/10:00am 16.4 13.2 5.0 47 5.4 SSE 11 19 6 10 1018.9 1018.8 0.0
26/09:30am 15.5 12.7 5.1 50 4.9 SW 9 17 5 9 1018.9 1018.8 0.0
26/09:00am 14.8 12.6 6.3 56 4.1 SSW 7 11 4 6 1018.8 1018.7 0.0
26/08:30am 13.7 13.3 8.3 70 2.7 CALM 0 0 0 0 1018.7 1018.6 0.0
26/08:00am 11.2 11.0 9.0 86 1.1 CALM 0 0 0 0 1018.5 1018.4 0.0
26/07:30am 9.1 8.7 8.1 93 0.5 CALM 0 0 0 0 1018.3 1018.2 0.0
26/07:00am 6.9 4.8 6.5 97 0.2 NNE 7 7 4 4 1017.7 1017.6 0.0
26/06:30am 4.6 2.2 4.1 97 0.2 NNW 6 7 3 4 1017.3 1017.2 0.0
26/06:00am 4.8 2.1 3.8 93 0.4 NNW 7 9 4 5 1017.0 1016.9 0.0
26/05:30am 4.8 3.5 4.1 95 0.3 CALM 0 0 0 0 1016.6 1016.5 0.0
26/05:00am 5.6 4.5 4.9 95 0.3 CALM 0 0 0 0 1016.1 1016.0 0.0

Other Formats:

Comma delimited format used in spreadsheet applications
http://www.bom.gov.au/fwo/IDS60801/IDS60801.94817.axf

JavaScript Object Notation format (JSON) in row-major order
http://www.bom.gov.au/fwo/IDS60801/IDS60801.94817.json